Time;durP1;ratioP1;P1;durP2;ratioP2;P2;SDS_P1;SDS_P2;PMS_P1;PMS_P2;Temp;Humidity;BMP_temperature;BMP_pressure;BME280_temperature;BME280_humidity;BME280_pressure;Samples;Min_cycle;Max_cycle;Signal;HPM_P1;HPM_P2
2022/07/06 00:01:23;;;;;;;10.75;4.75;;;;;;;16.27;82.97;98872.55;1410576;83;22220;-73
2022/07/06 00:03:25;;;;;;;6.25;5.75;;;;;;;16.27;82.98;98873.42;1407514;82;21547;-72
2022/07/06 00:05:28;;;;;;;9.13;5.50;;;;;;;16.26;82.94;98867.73;1410611;82;80855;-71
2022/07/06 00:07:30;;;;;;;6.12;5.62;;;;;;;16.24;82.99;98868.34;1389225;84;21039;-72
2022/07/06 00:09:31;;;;;;;6.50;6.00;;;;;;;16.25;83.06;98871.84;1411208;83;21098;-71
2022/07/06 00:11:33;;;;;;;6.00;5.50;;;;;;;16.23;83.08;98865.80;1383646;84;80637;-71
2022/07/06 00:13:34;;;;;;;8.58;6.40;;;;;;;16.23;83.05;98863.97;1412859;83;21062;-73
2022/07/06 00:15:36;;;;;;;7.33;5.42;;;;;;;16.23;83.05;98866.63;1412228;83;21060;-73
2022/07/06 00:17:39;;;;;;;17.10;5.60;;;;;;;16.23;83.02;98863.97;1410511;83;81936;-72
2022/07/06 00:19:40;;;;;;;8.90;5.70;;;;;;;16.21;83.01;98860.56;1412221;83;21098;-72
2022/07/06 00:21:42;;;;;;;6.20;5.70;;;;;;;16.21;83.01;98861.05;1412090;83;21076;-72
2022/07/06 00:23:43;;;;;;;4.90;4.60;;;;;;;16.22;83.03;98864.09;1412247;83;81815;-74
2022/07/06 00:25:45;;;;;;;5.78;5.37;;;;;;;16.19;82.99;98866.98;1412931;83;21550;-72
2022/07/06 00:27:46;;;;;;;5.53;5.12;;;;;;;16.17;83.00;98862.62;1411075;83;21655;-73
2022/07/06 00:29:47;;;;;;;6.50;6.03;;;;;;;16.17;83.00;98863.08;1385742;84;81589;-72
2022/07/06 00:31:48;;;;;;;6.10;5.47;;;;;;;16.17;83.03;98865.73;1411106;83;20999;-72
2022/07/06 00:33:49;;;;;;;5.47;4.97;;;;;;;16.17;83.02;98864.41;1411168;83;21542;-72
2022/07/06 00:35:50;;;;;;;6.28;5.10;;;;;;;16.14;82.96;98862.84;1409998;83;80824;-73
2022/07/06 00:37:52;;;;;;;5.35;4.85;;;;;;;16.12;82.99;98858.11;1412229;83;21034;-73
2022/07/06 00:39:53;;;;;;;6.72;5.47;;;;;;;16.12;82.99;98855.94;1410000;83;21247;-72
2022/07/06 00:41:54;;;;;;;9.20;5.58;;;;;;;16.11;82.96;98850.25;1388214;84;80645;-72
2022/07/06 00:43:56;;;;;;;5.95;5.55;;;;;;;16.10;82.99;98847.21;1410268;83;21017;-73
2022/07/06 00:45:57;;;;;;;6.83;6.28;;;;;;;16.12;83.01;98846.64;1410857;83;21066;-72
2022/07/06 00:47:59;;;;;;;7.15;5.70;;;;;;;16.13;83.06;98849.17;1409252;83;81503;-72
2022/07/06 00:52:20;;;;;;;5.85;5.35;;;;;;;16.14;83.01;98854.88;1403848;83;21051;-73
2022/07/06 00:54:22;;;;;;;6.58;5.95;;;;;;;16.11;83.03;98851.58;1404565;83;80690;-73
2022/07/06 00:56:25;;;;;;;8.78;5.42;;;;;;;16.11;83.03;98850.25;1406061;83;21064;-73
2022/07/06 00:58:26;;;;;;;5.97;5.53;;;;;;;16.11;83.03;98847.59;1404837;83;21044;-73
2022/07/06 01:00:28;;;;;;;6.05;5.60;;;;;;;16.10;83.02;98844.09;1403490;83;81448;-73
2022/07/06 01:02:33;;;;;;;7.53;5.50;;;;;;;16.10;83.03;98841.43;1403516;83;21096;-73
2022/07/06 01:04:34;;;;;;;6.33;5.83;;;;;;;16.11;83.03;98847.09;1403298;83;21044;-74
2022/07/06 01:06:36;;;;;;;6.05;5.65;;;;;;;16.12;83.03;98840.82;1401227;83;82132;-73
2022/07/06 01:08:38;;;;;;;9.08;6.15;;;;;;;16.13;83.06;98846.98;1405057;83;20995;-73
2022/07/06 01:10:39;;;;;;;8.33;6.03;;;;;;;16.12;83.04;98842.16;1402762;83;21011;-73
2022/07/06 01:12:40;;;;;;;;;;;;;;;16.12;83.07;98848.80;1404221;83;81290;-73
2022/07/06 01:14:42;;;;;;;;;;;;;;;16.15;83.14;98857.03;1408751;83;20193;-73
2022/07/06 01:16:43;;;;;;;6.53;5.87;;;;;;;16.14;83.17;98855.33;1405469;83;20169;-73
2022/07/06 01:18:45;;;;;;;5.95;5.58;;;;;;;16.13;83.14;98850.50;1402029;83;80657;-73
2022/07/06 01:20:46;;;;;;;6.97;6.35;;;;;;;16.14;83.12;98848.22;1403152;83;21023;-72
2022/07/06 01:22:49;;;;;;;13.03;6.80;;;;;;;16.14;83.13;98849.55;1404758;83;21007;-72
2022/07/06 01:24:50;;;;;;;7.50;6.87;;;;;;;16.16;83.13;98854.75;1402341;83;81702;-73
2022/07/06 01:26:52;;;;;;;6.95;6.50;;;;;;;16.16;83.12;98860.91;1403902;83;21106;-72
2022/07/06 01:28:53;;;;;;;6.85;6.37;;;;;;;16.16;83.12;98854.27;1406087;83;22408;-72
2022/07/06 01:30:54;;;;;;;10.55;7.05;;;;;;;16.17;83.15;98851.98;1402408;83;81228;-72
2022/07/06 01:32:55;;;;;;;;;;;;;;;16.19;83.16;98857.67;1408137;83;21027;-72
2022/07/06 01:34:56;;;;;;;7.30;6.70;;;;;;;16.20;83.23;98855.36;1404340;83;20171;-72
2022/07/06 01:36:57;;;;;;;;;;;;;;;16.21;83.23;98862.38;1405316;83;80863;-72
2022/07/06 01:38:58;;;;;;;6.35;5.92;;;;;;;16.20;83.24;98862.01;1401916;83;20150;-72
2022/07/06 01:41:01;;;;;;;7.90;7.12;;;;;;;16.14;83.22;98860.65;1404420;83;21082;-72
2022/07/06 01:43:02;;;;;;;7.65;7.03;;;;;;;16.20;83.19;98869.98;1373652;85;81276;-72
2022/07/06 01:45:04;;;;;;;7.50;7.00;;;;;;;16.20;83.19;98862.01;1377182;85;21095;-72
2022/07/06 01:47:06;;;;;;;7.45;7.00;;;;;;;16.19;83.17;98857.67;1376054;85;21364;-72
2022/07/06 01:49:07;;;;;;;11.03;7.78;;;;;;;16.20;83.23;98864.20;1375049;85;81347;-72
2022/07/06 01:51:08;;;;;;;;;;;;;;;16.21;83.24;98865.87;1393004;84;21600;-72
2022/07/06 01:53:10;;;;;;;9.38;7.25;;;;;;;16.21;83.28;98861.89;1362133;85;67269;-72
2022/07/06 01:55:11;;;;;;;7.85;7.05;;;;;;;16.19;83.25;98859.00;1388414;84;21062;-72
2022/07/06 01:57:12;;;;;;;;;;;;;;;16.21;83.24;98863.71;1405205;83;21043;-72
2022/07/06 01:59:13;;;;;;;8.68;6.03;;;;;;;16.19;83.27;98866.48;1404279;83;67241;-71
2022/07/06 02:01:16;;;;;;;;;;;;;;;16.17;83.27;98869.27;1405113;83;21150;-71
2022/07/06 02:03:17;;;;;;;9.30;7.10;;;;;;;16.17;83.34;98873.25;1404119;83;20139;-72
2022/07/06 02:05:18;;;;;;;9.13;7.40;;;;;;;16.16;83.33;98872.87;1403448;83;80892;-72
2022/07/06 02:07:19;;;;;;;;;;;;;;;16.17;83.34;98873.25;1405829;83;21015;-72
2022/07/06 02:09:20;;;;;;;7.28;6.67;;;;;;;16.19;83.35;98864.32;1402077;83;20142;-72
2022/07/06 02:11:20;;;;;;;;;;;;;;;16.17;83.34;98864.41;1404740;83;80737;-72
2022/07/06 02:13:21;;;;;;;6.90;6.30;;;;;;;16.17;83.34;98861.28;1402344;83;20170;-72
2022/07/06 02:15:22;;;;;;;;;;;;;;;16.15;83.33;98859.20;1404513;83;21039;-72
2022/07/06 02:17:23;;;;;;;8.28;6.40;;;;;;;16.16;83.35;98853.42;1401144;83;68439;-72
2022/07/06 02:19:24;;;;;;;7.12;6.62;;;;;;;16.14;83.34;98852.67;1402581;83;21070;-72
2022/07/06 02:21:25;;;;;;;;;;;;;;;16.15;83.37;98851.72;1404928;83;21110;-72
2022/07/06 02:23:26;;;;;;;7.33;6.80;;;;;;;16.16;83.40;98852.09;1401108;83;67326;-72
2022/07/06 02:25:27;;;;;;;7.47;6.78;;;;;;;16.15;83.40;98857.87;1403092;83;21101;-72
2022/07/06 02:27:28;;;;;;;;;;;;;;;16.15;83.36;98853.88;1404665;83;21068;-72
2022/07/06 02:29:29;;;;;;;9.03;6.50;;;;;;;16.16;83.42;98856.92;1402564;83;67325;-72
2022/07/06 02:31:30;;;;;;;6.60;6.00;;;;;;;16.16;83.42;98859.58;1400799;83;21064;-71
2022/07/06 02:33:31;;;;;;;;;;;;;;;16.17;83.42;98853.77;1406403;83;21647;-72
2022/07/06 02:35:32;;;;;;;13.25;6.97;;;;;;;16.20;83.45;98861.55;1401130;83;67749;-73
2022/07/06 02:37:32;;;;;;;;;;;;;;;16.20;83.47;98862.88;1404865;83;21050;-73
2022/07/06 02:39:33;;;;;;;7.45;6.75;;;;;;;16.21;83.48;98868.54;1401936;83;20172;-72
2022/07/06 02:41:34;;;;;;;;;;;;;;;16.21;83.47;98863.22;1405558;83;81634;-72
2022/07/06 02:43:38;;;;;;;8.78;7.33;;;;;;;16.21;83.47;98864.55;1404525;83;20230;-72
2022/07/06 02:45:40;;;;;;;12.45;8.15;;;;;;;16.20;83.45;98860.67;1402880;83;21043;-72
2022/07/06 02:47:41;;;;;;;7.37;6.78;;;;;;;16.20;83.45;98860.67;1403184;83;80907;-73
2022/07/06 02:49:41;;;;;;;;;;;;;;;16.23;83.43;98865.80;1407076;83;21090;-72
2022/07/06 02:51:42;;;;;;;13.13;6.45;;;;;;;16.24;83.46;98871.45;1402131;83;20226;-73
2022/07/06 02:53:43;;;;;;;;;;;;;;;16.22;83.46;98864.92;1409138;83;81961;-72
2022/07/06 02:55:44;;;;;;;18.07;7.47;;;;;;;16.22;83.50;98870.73;1404814;83;20139;-72
2022/07/06 02:57:45;;;;;;;9.03;7.22;;;;;;;16.21;83.48;98871.69;1403581;83;22181;-72
2022/07/06 02:59:46;;;;;;;;;;;;;;;16.23;83.50;98869.78;1405325;83;80724;-72
2022/07/06 03:01:47;;;;;;;10.93;7.97;;;;;;;16.23;83.51;98876.44;1404208;83;20196;-72
2022/07/06 03:03:48;;;;;;;;;;;;;;;16.23;83.52;98879.09;1406475;83;21078;-73
2022/07/06 03:05:51;;;;;;;9.28;8.58;;;;;;;16.24;83.58;98869.67;1402661;83;66978;-73
2022/07/06 03:07:51;;;;;;;10.50;9.70;;;;;;;16.25;83.57;98872.67;1402778;83;21014;-72
2022/07/06 03:09:52;;;;;;;;;;;;;;;16.28;83.54;98874.27;1406074;83;21028;-73
2022/07/06 03:11:53;;;;;;;9.53;8.28;;;;;;;16.30;83.59;98873.19;1403720;83;66878;-73
2022/07/06 03:13:55;;;;;;;10.08;9.18;;;;;;;16.30;83.54;98876.34;1405682;83;21031;-73
2022/07/06 03:15:56;;;;;;;9.38;8.50;;;;;;;16.26;83.49;98875.70;1404029;83;21035;-73
2022/07/06 03:17:57;;;;;;;11.78;9.45;;;;;;;16.29;83.46;98875.97;1403535;83;81488;-73
2022/07/06 03:19:58;;;;;;;;;;;;;;;16.29;83.44;98875.47;1405611;83;21164;-73
2022/07/06 03:21:59;;;;;;;12.85;8.43;;;;;;;16.28;83.43;98875.13;1403287;83;20130;-73
2022/07/06 03:23:59;;;;;;;;;;;;;;;16.28;83.40;98875.59;1403643;83;80803;-73
2022/07/06 03:26:01;;;;;;;9.38;8.50;;;;;;;16.27;83.40;98880.53;1404471;83;20138;-73
2022/07/06 03:28:01;;;;;;;;;;;;;;;16.25;83.39;98877.99;1405862;83;21019;-73
2022/07/06 03:30:03;;;;;;;9.53;8.75;;;;;;;16.25;83.38;98879.32;1401641;83;67056;-73
2022/07/06 03:32:04;;;;;;;15.85;8.78;;;;;;;16.23;83.37;98876.44;1401835;83;21074;-72
2022/07/06 03:34:06;;;;;;;12.37;9.98;;;;;;;16.22;83.31;98877.39;1402765;83;21304;-72
2022/07/06 03:36:07;;;;;;;10.85;8.90;;;;;;;16.21;83.30;98881.00;1402063;83;81031;-72
2022/07/06 03:38:08;;;;;;;11.97;9.28;;;;;;;16.19;83.27;98888.25;1402341;83;21019;-72
2022/07/06 03:40:09;;;;;;;;;;;;;;;16.17;83.24;98896.31;1405652;83;21541;-72
2022/07/06 03:42:10;;;;;;;;;;;;;;;16.17;83.28;98891.00;1404440;83;67937;-72
2022/07/06 03:44:11;;;;;;;10.80;8.95;;;;;;;16.14;83.32;98892.09;1403823;83;20166;-72
2022/07/06 03:46:12;;;;;;;;;;;;;;;16.12;83.28;98899.32;1404255;83;21042;-71
2022/07/06 03:48:13;;;;;;;10.05;9.13;;;;;;;16.12;83.31;98901.98;1401881;83;66895;-72
2022/07/06 03:50:14;;;;;;;11.18;9.20;;;;;;;16.10;83.30;98905.70;1401504;83;21048;-72
2022/07/06 03:52:15;;;;;;;;;;;;;;;16.07;83.24;98904.11;1396104;83;21032;-73
2022/07/06 03:54:16;;;;;;;10.78;9.03;;;;;;;16.02;83.26;98896.97;1374850;85;67963;-72
2022/07/06 03:56:28;;;;;;;;;;;;;;;16.02;83.26;98896.97;1397598;84;21016;-72
2022/07/06 03:58:29;;;;;;;13.65;8.98;;;;;;;16.02;83.30;98902.29;1393863;83;20198;-72
2022/07/06 04:00:30;;;;;;;10.30;9.33;;;;;;;16.01;83.31;98904.57;1393010;84;82124;-72
2022/07/06 04:02:32;;;;;;;13.60;10.13;;;;;;;16.00;83.27;98905.52;1395583;84;20991;-72
2022/07/06 04:04:34;;;;;;;10.95;9.25;;;;;;;16.00;83.26;98901.08;1393936;84;21555;-73
2022/07/06 04:06:35;;;;;;;10.68;9.58;;;;;;;15.96;83.28;98896.06;1391553;83;81683;-72
2022/07/06 04:08:36;;;;;;;;;;;;;;;16.00;83.26;98902.41;1380015;85;21058;-72
2022/07/06 04:10:37;;;;;;;11.12;8.68;;;;;;;16.03;83.32;98904.45;1394657;84;20158;-72
2022/07/06 04:12:44;;;;;;;10.78;8.68;;;;;;;16.02;83.26;98896.97;1410641;83;81817;-72
2022/07/06 04:14:45;;;;;;;15.08;9.28;;;;;;;15.98;83.31;98891.50;1413412;82;21636;-73
2022/07/06 04:16:45;;;;;;;;;;;;;;;15.98;83.31;98891.50;1416267;82;21047;-73
2022/07/06 04:18:46;;;;;;;8.85;7.85;;;;;;;16.02;83.18;98902.75;1411292;82;67162;-72
2022/07/06 04:20:47;;;;;;;;;;;;;;;15.99;83.13;98903.81;1416354;83;21191;-73
2022/07/06 04:22:49;;;;;;;15.30;7.78;;;;;;;15.99;83.11;98910.46;1413042;83;20150;-73
2022/07/06 04:24:50;;;;;;;9.25;8.25;;;;;;;15.98;83.10;98911.44;1411667;83;81625;-72
2022/07/06 04:26:51;;;;;;;;;;;;;;;15.98;83.08;98904.80;1415956;82;21511;-72
2022/07/06 04:28:52;;;;;;;12.47;6.97;;;;;;;15.98;83.09;98905.63;1415222;83;20223;-72
2022/07/06 04:30:53;;;;;;;9.90;7.60;;;;;;;15.99;83.04;98911.79;1412172;83;81717;-72
2022/07/06 04:32:55;;;;;;;;;;;;;;;16.01;83.06;98915.20;1416429;83;21110;-72
2022/07/06 04:34:56;;;;;;;9.00;6.75;;;;;;;15.98;82.96;98920.75;1412133;83;20309;-72
2022/07/06 04:36:57;;;;;;;8.60;7.72;;;;;;;15.98;82.96;98920.75;1410854;83;80854;-72
2022/07/06 04:38:58;;;;;;;;;;;;;;;15.98;82.95;98931.38;1416155;83;21011;-72
2022/07/06 04:40:59;;;;;;;9.85;8.68;;;;;;;15.99;83.02;98929.07;1413868;83;20144;-72
2022/07/06 04:43:00;;;;;;;;;;;;;;;15.98;82.96;98934.04;1414550;83;80464;-71
2022/07/06 04:45:00;;;;;;;7.70;7.10;;;;;;;15.97;82.94;98937.16;1412956;83;20640;-71
2022/07/06 04:47:01;;;;;;;;;;;;;;;15.96;82.92;98935.94;1416664;82;21581;-72
2022/07/06 04:49:02;;;;;;;12.93;7.85;;;;;;;15.96;82.89;98936.81;1409711;83;67580;-72
2022/07/06 04:51:03;;;;;;;;;;;;;;;15.95;82.88;98942.20;1418669;82;21063;-71
2022/07/06 04:53:04;;;;;;;7.72;7.05;;;;;;;15.94;82.83;98941.86;1416898;82;20135;-72
2022/07/06 04:55:05;;;;;;;;;;;;;;;15.94;82.93;98941.86;1414332;82;80510;-72
2022/07/06 04:57:06;;;;;;;8.53;6.30;;;;;;;15.96;82.91;98942.59;1414670;82;20186;-72
2022/07/06 04:59:08;;;;;;;;;;;;;;;15.95;82.91;98940.87;1417990;82;21011;-71
2022/07/06 05:01:09;;;;;;;14.50;7.20;;;;;;;15.97;82.92;98954.44;1415433;82;67664;-71
2022/07/06 05:03:10;;;;;;;11.93;7.92;;;;;;;15.97;82.84;98958.42;1414220;82;21087;-72
2022/07/06 05:05:11;;;;;;;;;;;;;;;15.99;82.81;98962.30;1419488;82;81494;-71
2022/07/06 05:07:12;;;;;;;11.20;7.30;;;;;;;16.02;82.85;98970.08;1415092;82;20136;-71
2022/07/06 05:09:13;;;;;;;;;;;;;;;16.04;82.85;98970.80;1416546;82;21065;-71
2022/07/06 05:11:14;;;;;;;20.90;10.05;;;;;;;16.07;82.85;98973.23;1415263;82;67611;-71
2022/07/06 05:13:15;;;;;;;;;;;;;;;16.11;82.90;98972.55;1417887;82;21022;-71
2022/07/06 05:15:16;;;;;;;7.97;7.10;;;;;;;16.18;82.97;98968.48;1415058;82;20505;-72
2022/07/06 05:17:16;;;;;;;;;;;;;;;16.18;82.78;98967.16;1415782;82;81592;-71
2022/07/06 05:19:17;;;;;;;15.83;11.50;;;;;;;16.22;82.75;98970.47;1417771;82;20146;-71
2022/07/06 05:21:18;;;;;;;;;;;;;;;16.26;82.85;98973.27;1417235;82;21043;-71
2022/07/06 05:23:19;;;;;;;8.20;7.37;;;;;;;16.31;82.83;98971.98;1413575;82;67157;-71
2022/07/06 05:25:20;;;;;;;;;;;;;;;16.37;82.88;98961.38;1421023;82;21050;-71
2022/07/06 05:27:21;;;;;;;8.28;7.55;;;;;;;16.42;82.70;98968.55;1416266;82;20269;-71
2022/07/06 05:29:22;;;;;;;;;;;;;;;16.48;82.73;98973.41;1417373;82;82057;-71
2022/07/06 05:31:23;;;;;;;12.35;7.92;;;;;;;16.58;82.73;98974.08;1413532;82;20190;-71
2022/07/06 05:33:24;;;;;;;7.25;6.65;;;;;;;16.68;82.76;98976.41;1415730;82;21035;-71
2022/07/06 05:35:25;;;;;;;;;;;;;;;16.75;82.53;98972.33;1418022;82;81555;-71
2022/07/06 05:37:26;;;;;;;7.20;6.47;;;;;;;16.80;82.42;98968.02;1414096;82;20210;-71
2022/07/06 05:39:27;;;;;;;7.53;5.40;;;;;;;16.83;82.37;98973.11;1412983;82;21534;-71
2022/07/06 05:41:28;;;;;;;;;;;;;;;16.86;82.20;98978.20;1419823;82;81642;-71
2022/07/06 05:43:29;;;;;;;12.70;4.97;;;;;;;16.86;82.07;98979.53;1415636;82;20186;-72
2022/07/06 05:45:30;;;;;;;;;;;;;;;16.85;81.84;98976.03;1419036;82;22156;-72
2022/07/06 05:52:10;;;;;;;6.20;5.60;;;;;;;16.89;81.72;98975.83;1389230;84;21570;-70
2022/07/06 05:54:11;;;;;;;8.30;5.08;;;;;;;16.87;81.75;98973.74;1388084;84;80596;-70
2022/07/06 05:56:12;;;;;;;;;;;;;;;16.89;81.79;98979.36;1393881;84;21157;-70
2022/07/06 05:58:13;;;;;;;5.58;5.03;;;;;;;16.91;81.86;98979.24;1388671;84;20439;-71
2022/07/06 06:00:14;;;;;;;6.00;5.20;;;;;;;16.91;81.73;98984.56;1388011;84;81637;-71
2022/07/06 06:02:15;;;;;;;7.92;5.25;;;;;;;16.93;81.77;98990.61;1389906;84;21088;-71
2022/07/06 06:04:16;;;;;;;;;;;;;;;16.96;81.72;98985.92;1390603;84;22470;-70
2022/07/06 06:06:17;;;;;;;8.28;5.70;;;;;;;17.00;81.64;98981.19;1364333;85;68180;-71
2022/07/06 06:08:18;;;;;;;6.75;6.10;;;;;;;17.05;81.70;98985.70;1364036;85;20999;-71
2022/07/06 06:10:21;;;;;;;;;;;;;;;17.10;81.77;98983.55;1374678;85;22153;-71
2022/07/06 06:12:22;;;;;;;4.72;4.40;;;;;;;17.14;81.43;98979.70;1372316;85;66925;-71
2022/07/06 06:14:23;;;;;;;6.47;4.87;;;;;;;17.14;81.25;98978.36;1372493;85;21058;-71
2022/07/06 06:16:24;;;;;;;9.68;4.50;;;;;;;17.14;81.31;98976.16;1369829;85;21063;-71
2022/07/06 06:18:25;;;;;;;5.97;5.40;;;;;;;17.15;81.33;98974.71;1371951;85;81522;-70
2022/07/06 06:20:26;;;;;;;;;;;;;;;17.18;81.28;98969.64;1376131;85;21056;-71
2022/07/06 06:22:27;;;;;;;5.42;4.90;;;;;;;17.19;81.25;98972.19;1372613;85;20145;-71
2022/07/06 06:24:28;;;;;;;;;;;;;;;17.19;81.25;98966.85;1374808;85;81595;-71
2022/07/06 06:26:29;;;;;;;16.12;5.55;;;;;;;17.24;81.07;98963.86;1374721;85;20220;-71
2022/07/06 06:28:30;;;;;;;4.83;4.42;;;;;;;17.27;80.96;98968.11;1373844;85;21055;-71
2022/07/06 06:30:32;;;;;;;8.98;3.95;;;;;;;17.31;80.88;98965.09;1350261;86;81647;-71
2022/07/06 06:32:33;;;;;;;10.00;5.05;;;;;;;17.38;80.87;98973.46;1373600;85;21055;-71
2022/07/06 06:34:34;;;;;;;7.15;4.83;;;;;;;17.40;80.77;98970.19;1372364;85;21031;-71
2022/07/06 06:36:36;;;;;;;7.58;4.47;;;;;;;17.43;80.66;98975.30;1372118;84;81923;-71
2022/07/06 06:38:37;;;;;;;10.95;4.03;;;;;;;17.47;80.76;98967.44;1372521;85;21024;-71
2022/07/06 06:40:38;;;;;;;4.45;4.10;;;;;;;17.50;80.62;98972.52;1372677;85;21102;-71
2022/07/06 06:42:39;;;;;;;5.10;4.08;;;;;;;17.59;80.69;98972.78;1370668;85;80678;-72
2022/07/06 06:44:40;;;;;;;13.60;4.97;;;;;;;17.68;80.76;98978.24;1373422;85;21003;-72
2022/07/06 06:46:41;;;;;;;4.92;4.33;;;;;;;17.76;80.40;98984.30;1373152;85;21098;-71
2022/07/06 06:48:42;;;;;;;5.53;3.92;;;;;;;17.81;80.40;98992.79;1369608;85;81510;-70
2022/07/06 06:50:45;;;;;;;8.03;3.72;;;;;;;17.80;80.07;98992.42;1393640;84;21038;-71
2022/07/06 06:52:47;;;;;;;9.28;3.87;;;;;;;17.81;80.13;98998.12;1416291;82;21599;-71
2022/07/06 06:54:48;;;;;;;5.95;4.28;;;;;;;17.78;79.92;98995.70;1413522;82;80841;-71
2022/07/06 06:56:49;;;;;;;5.22;4.47;;;;;;;17.78;80.06;98990.86;1415931;82;21186;-71
2022/07/06 06:58:50;;;;;;;4.80;4.37;;;;;;;17.76;80.09;98987.45;1414163;82;21500;-71
2022/07/06 07:00:51;;;;;;;7.97;4.70;;;;;;;17.78;80.36;98990.38;1415635;82;81781;-71
2022/07/06 07:02:52;;;;;;;9.30;4.22;;;;;;;17.82;80.36;98989.63;1415225;82;21501;-71
2022/07/06 07:04:55;;;;;;;6.00;4.50;;;;;;;17.90;80.48;98982.38;1416988;82;21263;-72
2022/07/06 07:06:56;;;;;;;5.12;4.40;;;;;;;18.00;80.45;98978.06;1414293;82;80677;-70
2022/07/06 07:08:57;;;;;;;14.00;4.85;;;;;;;18.10;80.20;98980.35;1380009;84;21148;-72
2022/07/06 07:11:02;;;;;;;11.00;3.83;;;;;;;18.20;80.11;98983.97;1403588;83;21535;-72
2022/07/06 07:13:03;;;;;;;4.25;3.85;;;;;;;18.29;79.94;98980.20;1398360;83;81940;-71
2022/07/06 07:15:05;;;;;;;4.92;3.60;;;;;;;18.30;79.62;98981.41;1401395;83;21542;-71
2022/07/06 07:17:06;;;;;;;3.65;3.35;;;;;;;18.35;79.59;98987.23;1401910;83;21085;-71
2022/07/06 07:19:07;;;;;;;8.48;4.10;;;;;;;18.38;79.26;98991.48;1402006;83;81360;-71
2022/07/06 07:21:08;;;;;;;4.60;4.20;;;;;;;18.41;79.24;98993.89;1402459;83;21057;-72
2022/07/06 07:23:09;;;;;;;5.97;3.70;;;;;;;18.45;79.41;98987.83;1403078;83;21032;-72
2022/07/06 07:25:10;;;;;;;7.78;4.05;;;;;;;18.46;79.21;98989.54;1400224;83;81453;-71
2022/07/06 07:27:11;;;;;;;4.53;4.03;;;;;;;18.46;79.17;98989.54;1402043;83;21007;-71
2022/07/06 07:29:12;;;;;;;4.70;3.50;;;;;;;18.50;79.22;98992.33;1404213;83;81873;-72
2022/07/06 07:31:16;;;;;;;9.00;4.00;;;;;;;18.50;78.98;98981.15;1405279;83;21039;-70
2022/07/06 07:33:19;;;;;;;5.78;4.03;;;;;;;18.50;78.74;98995.83;1407373;83;21106;-71
2022/07/06 07:35:20;;;;;;;5.22;3.80;;;;;;;18.50;78.65;98997.16;1400915;83;81975;-72
2022/07/06 07:37:21;;;;;;;9.53;3.77;;;;;;;18.51;78.77;99000.20;1400021;83;22300;-72
2022/07/06 07:39:22;;;;;;;7.53;3.77;;;;;;;18.57;78.88;98997.52;1406450;83;21046;-72
2022/07/06 07:41:23;;;;;;;6.03;4.28;;;;;;;18.65;78.87;98997.75;1400826;83;80897;-71
2022/07/06 07:43:24;;;;;;;4.25;3.35;;;;;;;18.74;78.64;98994.80;1403677;83;21056;-71
2022/07/06 07:45:25;;;;;;;6.70;3.62;;;;;;;18.83;78.45;99003.87;1402591;83;21606;-72
2022/07/06 07:47:26;;;;;;;6.25;3.60;;;;;;;18.89;78.23;99006.09;1402951;83;81637;-70
2022/07/06 07:49:27;;;;;;;5.65;3.30;;;;;;;19.01;78.40;99004.20;1403189;83;21681;-71
2022/07/06 07:51:28;;;;;;;4.05;3.35;;;;;;;19.09;78.10;99009.76;1403319;83;21049;-71
2022/07/06 07:53:29;;;;;;;3.58;3.27;;;;;;;19.16;78.07;99016.31;1401941;83;81453;-72
2022/07/06 07:55:30;;;;;;;;;;;;;;;19.17;77.95;99011.30;1406370;83;21023;-71
2022/07/06 07:57:31;;;;;;;4.33;3.00;;;;;;;19.19;77.77;99018.72;1404843;83;20191;-71
2022/07/06 07:59:32;;;;;;;3.67;3.12;;;;;;;19.17;77.66;99023.33;1400142;83;81831;-71
2022/07/06 08:01:33;;;;;;;3.15;2.92;;;;;;;19.17;77.56;99019.32;1404023;83;21054;-71
2022/07/06 08:03:34;;;;;;;3.92;3.30;;;;;;;19.19;77.40;99013.38;1402117;83;21157;-70
2022/07/06 08:05:35;;;;;;;4.03;3.50;;;;;;;19.26;77.53;99018.20;1402821;83;81856;-71
2022/07/06 08:07:36;;;;;;;9.98;3.50;;;;;;;19.36;77.61;99021.81;1403226;83;21071;-70
2022/07/06 08:09:37;;;;;;;2.83;2.62;;;;;;;19.47;77.28;99016.40;1403140;83;21028;-71
2022/07/06 08:11:39;;;;;;;4.10;3.00;;;;;;;19.52;77.15;99007.51;1406172;83;81423;-72
2022/07/06 08:13:40;;;;;;;9.00;3.15;;;;;;;19.53;76.98;99008.34;1405217;83;21062;-72
2022/07/06 08:15:42;;;;;;;4.70;2.98;;;;;;;19.54;76.85;99018.06;1403777;83;21603;-72
2022/07/06 08:17:43;;;;;;;3.85;3.12;;;;;;;19.53;76.66;99023.88;1399345;83;80574;-72
2022/07/06 08:19:44;;;;;;;2.95;2.75;;;;;;;19.55;76.57;99027.29;1401794;83;21049;-72
2022/07/06 08:21:45;;;;;;;7.70;3.25;;;;;;;19.53;76.30;99029.23;1402501;83;21063;-72
2022/07/06 08:23:47;;;;;;;3.08;2.77;;;;;;;19.55;76.44;99027.29;1399410;83;80900;-71
2022/07/06 08:25:48;;;;;;;4.30;3.67;;;;;;;19.57;76.20;99029.33;1402374;83;21071;-71
2022/07/06 08:27:49;;;;;;;7.10;3.95;;;;;;;19.62;76.27;99020.07;1401776;83;23592;-71
2022/07/06 08:29:50;;;;;;;10.93;3.20;;;;;;;19.66;76.45;99019.70;1402197;83;81568;-71
2022/07/06 08:31:51;;;;;;;4.12;3.00;;;;;;;19.71;76.31;99019.30;1401315;83;21011;-72
2022/07/06 08:33:54;;;;;;;3.80;3.25;;;;;;;19.72;76.22;99013.81;1404688;83;21496;-71
2022/07/06 08:35:55;;;;;;;7.40;2.77;;;;;;;19.73;76.21;99017.35;1402585;83;80703;-71
2022/07/06 08:37:56;;;;;;;4.95;3.02;;;;;;;19.77;76.02;99022.80;1404994;83;21059;-72
2022/07/06 08:39:57;;;;;;;9.85;3.20;;;;;;;19.79;76.13;99028.01;1404410;83;21035;-71
2022/07/06 08:42:00;;;;;;;8.93;3.67;;;;;;;19.80;76.07;99023.03;1401502;83;81289;-71
2022/07/06 08:44:02;;;;;;;4.60;3.80;;;;;;;19.79;75.87;99023.50;1400835;83;21031;-71
2022/07/06 08:46:05;;;;;;;5.90;5.08;;;;;;;19.77;75.80;99020.13;1388703;84;21007;-73
2022/07/06 08:48:07;;;;;;;9.98;8.13;;;;;;;19.73;75.20;99029.39;1402086;83;81372;-71
2022/07/06 08:50:10;;;;;;;10.80;9.05;;;;;;;19.62;75.50;99029.42;1400817;83;21102;-71
2022/07/06 08:52:11;;;;;;;13.10;11.33;;;;;;;19.45;75.53;99030.37;1404070;83;21626;-72
2022/07/06 08:54:13;;;;;;;16.95;12.03;;;;;;;19.25;75.87;99037.90;1403813;83;81821;-72
2022/07/06 08:56:14;;;;;;;20.88;13.00;;;;;;;19.03;76.12;99042.34;1401791;83;21056;-73
2022/07/06 08:58:15;;;;;;;21.00;15.25;;;;;;;18.80;76.49;99049.52;1401188;83;21027;-72
2022/07/06 09:00:17;;;;;;;16.52;14.75;;;;;;;18.62;76.81;99054.06;1402802;83;81675;-72
2022/07/06 09:02:19;;;;;;;16.02;14.33;;;;;;;18.44;76.93;99059.52;1378859;84;21071;-72
2022/07/06 09:04:22;;;;;;;18.30;15.93;;;;;;;18.25;76.98;99058.33;1402032;83;21059;-72
2022/07/06 09:06:24;;;;;;;26.37;16.00;;;;;;;18.10;77.24;99063.04;1377783;84;81115;-71
2022/07/06 09:08:28;;;;;;;29.02;15.65;;;;;;;17.98;77.46;99066.66;1401388;83;20991;-71
2022/07/06 09:10:29;;;;;;;22.87;13.70;;;;;;;17.85;77.54;99078.23;1403311;83;21593;-72
2022/07/06 09:12:30;;;;;;;26.17;14.40;;;;;;;17.75;77.72;99077.26;1401452;83;81609;-73
2022/07/06 09:14:31;;;;;;;26.57;17.73;;;;;;;17.63;77.81;99078.19;1403275;83;21554;-72
2022/07/06 09:16:32;;;;;;;25.68;18.90;;;;;;;17.55;77.98;99075.25;1401681;83;21067;-73
2022/07/06 09:18:37;;;;;;;22.02;17.98;;;;;;;17.52;78.28;99079.00;1382556;84;81868;-72
2022/07/06 09:20:41;;;;;;;24.65;16.17;;;;;;;17.55;78.46;99076.09;1402870;83;21681;-72
2022/07/06 09:22:42;;;;;;;20.37;17.20;;;;;;;17.62;78.63;99068.48;1388177;84;21514;-73
2022/07/06 09:24:43;;;;;;;33.20;22.37;;;;;;;17.65;78.59;99069.12;1403062;83;82074;-71
2022/07/06 09:26:47;;;;;;;21.70;16.77;;;;;;;17.74;78.83;99072.89;1405618;83;20995;-71
2022/07/06 09:28:48;;;;;;;25.85;20.00;;;;;;;17.92;78.75;99056.48;1402671;83;21080;-71
2022/07/06 09:30:52;;;;;;;26.87;18.55;;;;;;;18.09;78.96;99058.66;1401536;83;81304;-72
2022/07/06 09:32:55;;;;;;;25.02;18.32;;;;;;;18.31;78.92;99051.66;1403005;83;21047;-71
2022/07/06 09:34:57;;;;;;;18.07;15.20;;;;;;;18.52;78.93;99048.59;1404005;83;21648;-72
2022/07/06 09:37:06;;;;;;;23.05;14.00;;;;;;;18.80;78.76;99046.85;1402085;83;82067;-72
2022/07/06 09:39:24;;;;;;;13.90;12.55;;;;;;;18.97;78.22;99053.52;1402826;83;21030;-72
2022/07/06 09:41:35;;;;;;;13.00;11.53;;;;;;;19.17;78.01;99042.03;1400117;83;80966;-72
2022/07/06 09:43:37;;;;;;;15.25;9.60;;;;;;;19.37;77.72;99045.73;1402203;83;21008;-73
2022/07/06 09:45:40;;;;;;;18.98;10.53;;;;;;;19.59;76.75;99041.73;1403191;83;21980;-72
2022/07/06 09:47:46;;;;;;;19.77;10.82;;;;;;;19.63;76.43;99045.34;1401217;83;81916;-72